createdAt,value
2019-04-27T00:04:32.879Z,22.73
2019-04-27T00:07:04.994Z,22.13
2019-04-27T00:09:37.114Z,23.62
2019-04-27T00:12:09.180Z,22.10
2019-04-27T00:14:40.249Z,23.50
2019-04-27T00:17:12.907Z,23.10
2019-04-27T00:19:45.211Z,23.77
2019-04-27T00:22:17.330Z,23.57
2019-04-27T00:24:48.009Z,22.55
2019-04-27T00:27:19.166Z,23.20
2019-04-27T00:29:49.862Z,22.93
2019-04-27T00:32:20.769Z,23.18
2019-04-27T00:34:53.156Z,22.20
2019-04-27T00:37:25.204Z,21.10
2019-04-27T00:39:57.184Z,21.00
2019-04-27T00:42:27.916Z,20.43
2019-04-27T00:44:58.632Z,21.25
2019-04-27T00:47:29.314Z,20.27
2019-04-27T00:50:00.462Z,20.37
2019-04-27T00:52:32.607Z,19.60
2019-04-27T00:55:03.250Z,20.08
2019-04-27T00:57:35.458Z,19.77
2019-04-27T01:00:08.931Z,20.60
2019-04-27T01:02:41.123Z,19.52
2019-04-27T01:05:13.356Z,20.15
2019-04-27T01:07:44.264Z,19.12
2019-04-27T01:10:15.131Z,18.07
2019-04-27T01:12:46.141Z,17.98
2019-04-27T01:15:17.048Z,18.90
2019-04-27T01:17:49.032Z,18.98
2019-04-27T01:20:19.926Z,18.42
2019-04-27T01:22:50.625Z,17.10
2019-04-27T01:25:22.692Z,17.15
2019-04-27T01:27:54.795Z,17.57
2019-04-27T01:30:27.020Z,17.85
2019-04-27T01:33:00.510Z,17.73
2019-04-27T01:35:31.311Z,16.20
2019-04-27T01:38:02.212Z,17.73
2019-04-27T01:40:32.975Z,18.30
2019-04-27T01:43:03.847Z,19.67
2019-04-27T01:45:34.589Z,17.20
2019-04-27T01:48:05.421Z,17.92
2019-04-27T01:50:36.599Z,15.23
2019-04-27T01:53:08.855Z,18.80
2019-04-27T01:55:40.770Z,18.42
2019-04-27T01:58:11.694Z,17.10
2019-04-27T02:00:45.524Z,19.67
2019-04-27T02:03:17.509Z,18.00
2019-04-27T02:05:49.663Z,18.17
2019-04-27T02:08:20.447Z,18.42
2019-04-27T02:10:59.358Z,18.35
2019-04-27T02:15:59.994Z,19.98
2019-04-27T02:18:37.555Z,17.67
2019-04-27T02:21:03.212Z,21.93
2019-04-27T02:23:33.820Z,17.73
2019-04-27T02:26:05.219Z,18.23
2019-04-27T02:29:08.782Z,18.25
2019-04-27T02:31:40.897Z,19.00
2019-04-27T02:34:13.189Z,19.00
2019-04-27T02:36:44.882Z,18.60
2019-04-27T02:39:15.548Z,17.75
2019-04-27T02:41:46.522Z,16.95
2019-04-27T02:44:19.954Z,17.70
2019-04-27T02:46:50.835Z,18.32
2019-04-27T02:49:22.023Z,25.95
2019-04-27T02:51:54.132Z,30.08
2019-04-27T02:54:24.940Z,20.23
2019-04-27T02:56:55.726Z,20.70
2019-04-27T02:59:26.684Z,20.20
2019-04-27T03:02:00.799Z,18.40
2019-04-27T03:04:30.899Z,17.75
2019-04-27T03:07:01.824Z,17.32
2019-04-27T03:09:32.747Z,17.55
2019-04-27T03:12:25.425Z,18.27
2019-04-27T03:14:59.420Z,19.25
2019-04-27T03:17:31.265Z,17.67
2019-04-27T03:23:12.188Z,19.02
2019-04-27T03:25:44.153Z,19.73
2019-04-27T03:28:15.703Z,17.77
2019-04-27T03:30:46.775Z,18.12
2019-04-27T03:33:21.656Z,17.23
2019-04-27T03:35:52.519Z,18.62
2019-04-27T03:41:12.401Z,21.17
2019-04-27T03:43:43.269Z,24.37
2019-04-27T03:46:14.240Z,47.35
2019-04-27T03:48:45.045Z,24.18
2019-04-27T03:51:21.428Z,21.75
2019-04-27T03:53:55.437Z,22.58
2019-04-27T03:56:26.646Z,23.55
2019-04-27T03:58:59.759Z,23.47
2019-04-27T04:01:30.834Z,22.52
2019-04-27T04:04:01.867Z,28.27
2019-04-27T04:06:32.866Z,22.45
2019-04-27T04:09:06.214Z,21.85
2019-04-27T04:11:39.531Z,21.25
2019-04-27T04:14:11.848Z,22.75
2019-04-27T04:16:43.879Z,19.57
2019-04-27T04:19:15.947Z,22.00
2019-04-27T04:25:10.369Z,18.77
2019-04-27T04:27:42.496Z,17.67
2019-04-27T04:33:25.650Z,17.98
2019-04-27T04:35:59.640Z,18.27
2019-04-27T04:38:30.516Z,17.25
2019-04-27T04:41:02.828Z,16.40
2019-04-27T04:43:35.049Z,16.20
2019-04-27T04:46:09.790Z,16.62
2019-04-27T04:48:40.223Z,16.90
2019-04-27T04:51:10.276Z,17.37
2019-04-27T04:53:41.422Z,17.30
2019-04-27T04:56:12.642Z,16.17
2019-04-27T04:59:20.560Z,17.52
2019-04-27T05:01:54.168Z,17.90
2019-04-27T05:04:25.041Z,16.60
2019-04-27T05:06:55.951Z,16.90
2019-04-27T05:09:30.716Z,15.68
2019-04-27T05:12:01.742Z,16.07
2019-04-27T05:14:32.477Z,18.90
2019-04-27T05:17:03.447Z,16.57
2019-04-27T05:19:34.537Z,15.28
2019-04-27T05:22:09.211Z,15.32
2019-04-27T05:24:41.862Z,16.75
2019-04-27T05:27:35.773Z,18.67
2019-04-27T05:30:30.408Z,22.07
2019-04-27T05:33:18.825Z,19.50
2019-04-27T05:35:49.847Z,15.93
2019-04-27T05:38:25.164Z,17.17
2019-04-27T05:40:56.151Z,14.95
2019-04-27T05:43:30.179Z,14.47
2019-04-27T05:46:04.210Z,14.75
2019-04-27T05:48:36.166Z,14.98
2019-04-27T05:51:07.050Z,17.85
2019-04-27T05:53:39.451Z,14.68
2019-04-27T05:56:10.650Z,16.48
2019-04-27T05:58:42.078Z,14.83
2019-04-27T06:01:13.150Z,14.13
2019-04-27T06:03:43.980Z,14.47
2019-04-27T06:06:14.878Z,14.47
2019-04-27T06:08:45.775Z,15.30
2019-04-27T06:11:16.914Z,15.13
2019-04-27T06:13:49.264Z,15.13
2019-04-27T06:16:20.240Z,15.75
2019-04-27T06:18:51.202Z,15.03
2019-04-27T06:21:22.769Z,15.40
2019-04-27T06:23:53.903Z,14.45
2019-04-27T06:26:24.600Z,14.87
2019-04-27T06:28:55.457Z,14.05
2019-04-27T06:31:26.243Z,21.23
2019-04-27T06:33:56.975Z,16.20
2019-04-27T06:36:30.364Z,14.87
2019-04-27T06:39:01.259Z,14.03
2019-04-27T06:41:32.799Z,23.75
2019-04-27T06:44:04.335Z,14.75
2019-04-27T06:46:35.285Z,14.80
2019-04-27T06:49:06.054Z,14.75
2019-04-27T06:51:36.798Z,17.60
2019-04-27T06:54:09.147Z,15.48
2019-04-27T06:56:39.729Z,14.85
2019-04-27T06:59:10.508Z,17.48
2019-04-27T07:01:41.475Z,19.45
2019-04-27T07:04:12.419Z,16.07
2019-04-27T07:06:53.226Z,15.32
2019-04-27T07:09:20.010Z,14.53
2019-04-27T07:11:50.952Z,16.30
2019-04-27T07:14:22.166Z,16.62
2019-04-27T07:16:53.055Z,16.00
2019-04-27T07:19:24.412Z,15.53
2019-04-27T07:21:55.372Z,15.75
2019-04-27T07:24:26.265Z,16.00
2019-04-27T07:26:57.191Z,16.00
2019-04-27T07:29:29.224Z,15.80
2019-04-27T07:32:00.497Z,15.83
2019-04-27T07:34:31.293Z,16.07
2019-04-27T07:37:02.083Z,17.67
2019-04-27T07:39:33.204Z,21.00
2019-04-27T07:42:03.897Z,15.03
2019-04-27T07:44:38.962Z,18.62
2019-04-27T07:47:11.547Z,16.30
2019-04-27T07:49:43.883Z,20.95
2019-04-27T07:52:15.811Z,16.23
2019-04-27T07:54:49.076Z,18.48
2019-04-27T07:57:19.832Z,20.40
2019-04-27T07:59:50.744Z,18.90
2019-04-27T08:02:21.791Z,22.15
2019-04-27T08:04:52.653Z,18.40
2019-04-27T08:07:23.633Z,18.42
2019-04-27T08:09:54.656Z,17.12
2019-04-27T08:12:25.585Z,14.50
2019-04-27T08:14:56.649Z,15.15
2019-04-27T08:17:28.276Z,16.12
2019-04-27T08:20:00.720Z,16.25
2019-04-27T08:22:31.720Z,17.75
2019-04-27T08:25:02.690Z,15.60
2019-04-27T08:27:35.077Z,14.87
2019-04-27T08:30:09.804Z,16.00
2019-04-27T08:32:41.885Z,16.30
2019-04-27T08:35:13.029Z,15.95
2019-04-27T08:37:43.780Z,15.30
2019-04-27T08:40:15.978Z,16.02
2019-04-27T08:42:46.914Z,16.80
2019-04-27T08:45:19.187Z,15.13
2019-04-27T08:47:50.238Z,16.57
2019-04-27T08:50:21.248Z,17.02
2019-04-27T08:52:52.179Z,15.70
2019-04-27T08:55:23.571Z,21.30
2019-04-27T08:57:54.405Z,18.65
2019-04-27T09:00:25.593Z,18.15
2019-04-27T09:02:59.492Z,20.23
2019-04-27T09:05:30.438Z,18.10
2019-04-27T09:08:01.290Z,15.90
2019-04-27T09:10:33.538Z,18.00
2019-04-27T09:13:05.717Z,19.20
2019-04-27T09:15:39.177Z,20.05
2019-04-27T09:18:10.817Z,19.05
2019-04-27T09:20:44.134Z,20.20
2019-04-27T09:23:15.634Z,18.05
2019-04-27T09:25:47.042Z,18.23
2019-04-27T09:28:17.929Z,18.07
2019-04-27T09:30:49.789Z,18.65
2019-04-27T09:33:22.243Z,17.95
2019-04-27T09:35:53.405Z,22.15
2019-04-27T09:38:26.264Z,22.95
2019-04-27T09:40:58.073Z,20.40
2019-04-27T09:43:28.843Z,19.52
2019-04-27T09:45:59.870Z,17.48
2019-04-27T09:48:30.663Z,16.02
2019-04-27T09:51:01.804Z,16.75
2019-04-27T09:53:32.558Z,17.32
2019-04-27T09:56:03.446Z,17.55
2019-04-27T09:58:39.015Z,17.40
2019-04-27T10:01:10.025Z,16.70
2019-04-27T10:03:40.952Z,16.23
2019-04-27T10:06:11.797Z,16.37
2019-04-27T10:08:44.722Z,15.13
2019-04-27T10:11:16.245Z,16.32
2019-04-27T10:13:47.850Z,16.52
2019-04-27T10:16:18.636Z,16.65
2019-04-27T10:18:49.450Z,16.57
2019-04-27T10:21:20.442Z,16.65
2019-04-27T10:23:51.391Z,16.67
2019-04-27T10:26:22.142Z,16.95
2019-04-27T10:28:53.136Z,15.13
2019-04-27T10:31:23.944Z,15.98
2019-04-27T10:33:55.971Z,16.42
2019-04-27T10:36:28.334Z,16.55
2019-04-27T10:38:59.241Z,15.83
2019-04-27T10:41:30.016Z,14.98
2019-04-27T10:44:01.347Z,15.72
2019-04-27T10:46:32.108Z,15.45
2019-04-27T10:49:03.340Z,15.03
2019-04-27T10:51:34.141Z,16.77
2019-04-27T10:54:06.655Z,16.75
2019-04-27T10:56:37.995Z,16.57
2019-04-27T10:59:09.774Z,17.75
2019-04-27T11:01:40.729Z,18.23
2019-04-27T11:04:12.850Z,20.05
2019-04-27T11:06:45.087Z,18.77
2019-04-27T11:09:16.402Z,19.35
2019-04-27T11:11:47.307Z,20.50
2019-04-27T11:14:18.263Z,21.10
2019-04-27T11:16:49.073Z,20.65
2019-04-27T11:19:19.947Z,17.82
2019-04-27T11:21:50.721Z,17.95
2019-04-27T11:24:21.701Z,18.85
2019-04-27T11:26:52.626Z,18.73
2019-04-27T11:29:23.378Z,19.17
2019-04-27T11:31:55.515Z,18.45
2019-04-27T11:34:27.803Z,18.55
2019-04-27T11:36:59.893Z,17.90
2019-04-27T11:39:30.778Z,17.75
2019-04-27T11:42:01.706Z,17.90
2019-04-27T11:44:32.732Z,16.45
2019-04-27T11:47:03.610Z,17.48
2019-04-27T11:49:35.947Z,20.12
2019-04-27T11:52:06.905Z,19.67
2019-04-27T11:54:37.753Z,19.02
2019-04-27T11:57:08.574Z,19.37
2019-04-27T11:59:39.520Z,18.45
2019-04-27T12:02:10.283Z,17.00
2019-04-27T12:04:41.188Z,17.40
2019-04-27T12:07:11.973Z,18.35
2019-04-27T12:09:42.921Z,17.75
2019-04-27T12:12:19.451Z,17.48
2019-04-27T12:14:47.542Z,18.17
2019-04-27T12:17:18.533Z,18.40
2019-04-27T12:19:49.373Z,20.08
2019-04-27T12:22:20.776Z,20.32
2019-04-27T12:24:51.611Z,19.60
2019-04-27T12:27:23.794Z,20.75
2019-04-27T12:29:56.013Z,20.37
2019-04-27T12:32:27.836Z,20.60
2019-04-27T12:34:58.788Z,20.45
2019-04-27T12:37:29.805Z,20.37
2019-04-27T12:40:00.590Z,20.35
2019-04-27T12:42:31.591Z,22.55
2019-04-27T12:45:02.421Z,20.55
2019-04-27T12:47:33.309Z,19.98
2019-04-27T12:50:06.073Z,19.17
2019-04-27T12:52:36.755Z,20.92
2019-04-27T12:55:10.481Z,20.48
2019-04-27T12:57:45.089Z,19.37
2019-04-27T13:00:17.339Z,20.48
2019-04-27T13:02:48.191Z,19.40
2019-04-27T13:05:19.068Z,21.07
2019-04-27T13:07:49.763Z,18.60
2019-04-27T13:10:20.891Z,19.60
2019-04-27T13:12:51.729Z,19.55
2019-04-27T13:15:22.817Z,19.12
2019-04-27T13:17:55.580Z,19.80
2019-04-27T13:20:26.180Z,19.52
2019-04-27T13:22:57.137Z,20.08
2019-04-27T13:25:28.166Z,18.57
2019-04-27T13:27:59.002Z,18.85
2019-04-27T13:30:32.680Z,18.07
2019-04-27T13:33:03.452Z,17.45
2019-04-27T13:35:34.427Z,19.35
2019-04-27T13:38:06.588Z,18.62
2019-04-27T13:40:38.735Z,19.37
2019-04-27T13:43:10.719Z,19.73
2019-04-27T13:45:42.995Z,21.77
2019-04-27T13:48:15.080Z,20.85
2019-04-27T13:50:47.223Z,18.70
2019-04-27T13:53:18.202Z,17.92
2019-04-27T13:55:49.056Z,17.12
2019-04-27T13:58:20.028Z,16.45
2019-04-27T14:00:50.631Z,16.97
2019-04-27T14:03:21.633Z,16.17
2019-04-27T14:05:52.660Z,17.50
2019-04-27T14:08:24.796Z,16.67
2019-04-27T14:10:55.746Z,16.20
2019-04-27T14:13:28.387Z,16.35
2019-04-27T14:15:59.261Z,16.27
2019-04-27T14:18:30.213Z,15.05
2019-04-27T14:21:01.291Z,16.00
2019-04-27T14:23:33.318Z,15.08
2019-04-27T14:26:04.431Z,15.60
2019-04-27T14:28:35.156Z,15.23
2019-04-27T14:31:05.969Z,15.00
2019-04-27T14:33:39.548Z,14.60
2019-04-27T14:36:09.213Z,15.48
2019-04-27T14:38:40.151Z,15.63
2019-04-27T14:41:11.308Z,15.98
2019-04-27T14:43:42.100Z,16.87
2019-04-27T14:46:13.169Z,16.45
2019-04-27T14:48:43.932Z,16.77
2019-04-27T14:51:14.976Z,17.57
2019-04-27T14:53:45.925Z,17.10
2019-04-27T14:56:18.487Z,16.82
2019-04-27T14:58:49.505Z,16.02
2019-04-27T15:01:20.642Z,16.32
2019-04-27T15:03:51.634Z,15.95
2019-04-27T15:06:22.604Z,17.05
2019-04-27T15:08:53.390Z,16.52
2019-04-27T15:11:24.465Z,17.20
2019-04-27T15:13:59.276Z,16.70
2019-04-27T15:16:27.480Z,18.07
2019-04-27T15:18:59.993Z,16.75
2019-04-27T15:21:32.630Z,17.05
2019-04-27T15:24:09.322Z,17.80
2019-04-27T15:26:36.169Z,18.00
2019-04-27T15:29:08.288Z,18.02
2019-04-27T15:31:40.875Z,18.17
2019-04-27T15:34:11.678Z,18.12
2019-04-27T15:36:43.796Z,17.70
2019-04-27T15:39:16.025Z,18.15
2019-04-27T15:41:48.442Z,18.50
2019-04-27T15:44:19.121Z,17.57
2019-04-27T15:46:49.919Z,17.67
2019-04-27T15:49:20.766Z,18.37
2019-04-27T15:51:54.840Z,18.05
2019-04-27T15:54:28.707Z,18.60
2019-04-27T15:56:57.689Z,19.30
2019-04-27T15:59:30.989Z,18.80
2019-04-27T16:02:05.603Z,18.15
2019-04-27T16:04:34.645Z,18.48
2019-04-27T16:07:05.781Z,18.23
2019-04-27T16:09:38.619Z,17.65
2019-04-27T16:12:12.558Z,18.07
2019-04-27T16:14:44.117Z,18.48
2019-04-27T16:17:13.700Z,18.85
2019-04-27T16:19:48.942Z,18.75
2019-04-27T16:22:18.303Z,18.45
2019-04-27T16:24:49.447Z,18.48
2019-04-27T16:27:21.050Z,18.67
2019-04-27T16:29:52.071Z,17.75
2019-04-27T16:32:23.035Z,17.75
2019-04-27T16:34:54.080Z,17.30
2019-04-27T16:37:28.392Z,16.93
2019-04-27T16:39:58.929Z,17.20
2019-04-27T16:42:30.736Z,15.98
2019-04-27T16:45:01.516Z,16.12
2019-04-27T16:47:32.411Z,15.48
2019-04-27T16:50:03.325Z,15.25
2019-04-27T16:52:34.281Z,16.70
2019-04-27T16:55:05.627Z,16.07
2019-04-27T16:57:37.254Z,15.88
2019-04-27T17:00:11.046Z,15.98
2019-04-27T17:02:42.138Z,16.32
2019-04-27T17:05:15.525Z,16.55
2019-04-27T17:07:46.140Z,16.65
2019-04-27T17:10:25.495Z,16.20
2019-04-27T17:12:51.206Z,15.85
2019-04-27T17:15:22.946Z,15.80
2019-04-27T17:17:54.828Z,15.43
2019-04-27T17:20:25.698Z,15.32
2019-04-27T17:22:58.048Z,16.55
2019-04-27T17:25:30.496Z,16.12
2019-04-27T17:28:04.078Z,15.93
2019-04-27T17:30:37.949Z,16.75
2019-04-27T17:33:11.973Z,15.70
2019-04-27T17:35:42.713Z,15.58
2019-04-27T17:38:13.487Z,14.78
2019-04-27T17:40:44.748Z,16.23
2019-04-27T17:43:15.590Z,14.40
2019-04-27T17:45:48.462Z,15.85
2019-04-27T17:48:19.197Z,15.53
2019-04-27T17:50:55.896Z,15.53
2019-04-27T17:53:29.154Z,16.07
2019-04-27T17:56:02.674Z,15.58
2019-04-27T17:58:29.902Z,15.05
2019-04-27T18:01:00.911Z,16.10
2019-04-27T18:03:31.805Z,15.35
2019-04-27T18:06:02.654Z,14.83
2019-04-27T18:08:33.768Z,15.05
2019-04-27T18:11:04.771Z,15.98
2019-04-27T18:13:42.041Z,15.40
2019-04-27T18:16:11.918Z,15.35
2019-04-27T18:18:42.431Z,15.80
2019-04-27T18:21:19.490Z,15.45
2019-04-27T18:23:55.106Z,15.68
2019-04-27T18:26:23.687Z,16.37
2019-04-27T18:28:57.949Z,17.12
2019-04-27T18:31:28.922Z,16.93
2019-04-27T18:34:00.742Z,18.48
2019-04-27T18:36:31.675Z,19.10
2019-04-27T18:39:05.535Z,18.73
2019-04-27T18:41:34.845Z,20.30
2019-04-27T18:44:06.156Z,19.92
2019-04-27T18:46:38.404Z,19.90
2019-04-27T18:49:13.563Z,20.45
2019-04-27T18:51:45.564Z,21.00
2019-04-27T18:54:18.286Z,20.60
2019-04-27T18:57:01.460Z,20.50
2019-04-27T18:59:20.868Z,22.82
2019-04-27T19:01:51.925Z,20.80
2019-04-27T19:04:22.808Z,21.10
2019-04-27T19:06:53.726Z,20.68
2019-04-27T19:09:24.545Z,20.70
2019-04-27T19:11:56.695Z,19.40
2019-04-27T19:14:28.275Z,20.52
2019-04-27T19:16:59.294Z,20.30
2019-04-27T19:19:30.188Z,20.90
2019-04-27T19:22:00.775Z,20.75
2019-04-27T19:24:31.704Z,21.05
2019-04-27T19:27:15.275Z,21.25
2019-04-27T19:29:38.171Z,20.80
2019-04-27T19:32:09.328Z,21.05
2019-04-27T19:34:40.214Z,21.93
2019-04-27T19:37:11.065Z,21.73
2019-04-27T19:39:41.943Z,22.30
2019-04-27T19:42:12.693Z,21.57
2019-04-27T19:44:43.694Z,22.32
2019-04-27T19:47:14.636Z,22.20
2019-04-27T19:49:46.513Z,22.42
2019-04-27T19:52:22.581Z,22.65
2019-04-27T19:54:53.026Z,22.67
2019-04-27T19:57:34.985Z,23.22
2019-04-27T19:59:58.827Z,22.52
2019-04-27T20:02:29.643Z,22.42
2019-04-27T20:05:01.764Z,23.22
2019-04-27T20:07:32.662Z,23.25
2019-04-27T20:10:04.145Z,22.93
2019-04-27T20:12:35.059Z,23.35
2019-04-27T20:15:07.813Z,23.90
2019-04-27T20:17:40.797Z,22.62
2019-04-27T20:20:11.528Z,23.90
2019-04-27T20:22:42.414Z,22.98
2019-04-27T20:25:13.421Z,23.62
2019-04-27T20:27:49.595Z,24.02
2019-04-27T20:30:16.926Z,23.40
2019-04-27T20:32:47.770Z,23.80
2019-04-27T20:35:18.722Z,23.38
2019-04-27T20:37:49.612Z,21.97
2019-04-27T20:40:21.798Z,24.35
2019-04-27T20:42:52.909Z,22.73
2019-04-27T20:45:23.759Z,24.27
2019-04-27T20:47:54.384Z,25.00
2019-04-27T20:50:25.263Z,24.18
2019-04-27T20:52:56.906Z,23.55
2019-04-27T20:55:27.798Z,24.30
2019-04-27T20:58:02.290Z,23.92
2019-04-27T21:00:32.010Z,24.23
2019-04-27T21:03:04.345Z,23.85
2019-04-27T21:05:36.580Z,23.83
2019-04-27T21:08:08.862Z,24.80
2019-04-27T21:10:40.810Z,23.83
2019-04-27T21:13:11.800Z,24.92
2019-04-27T21:15:44.040Z,23.20
2019-04-27T21:18:14.837Z,23.80
2019-04-27T21:20:45.534Z,22.62
2019-04-27T21:23:16.439Z,22.65
2019-04-27T21:25:47.292Z,21.77
2019-04-27T21:28:37.458Z,21.82
2019-04-27T21:31:08.305Z,22.17
2019-04-27T21:33:40.757Z,23.55
2019-04-27T21:36:11.724Z,23.40
2019-04-27T21:38:43.158Z,23.20
2019-04-27T21:41:13.908Z,22.32
2019-04-27T21:43:44.844Z,21.90
2019-04-27T21:46:15.696Z,23.32
2019-04-27T21:48:46.682Z,22.32
2019-04-27T21:51:17.647Z,21.45
2019-04-27T21:53:51.235Z,21.05
2019-04-27T21:56:22.384Z,17.57
2019-04-27T21:58:53.252Z,16.80
2019-04-27T22:01:31.811Z,17.07
2019-04-27T22:04:02.943Z,16.90
2019-04-27T22:06:33.904Z,17.15
2019-04-27T22:09:06.163Z,16.52
2019-04-27T22:11:37.118Z,15.88
2019-04-27T22:14:08.191Z,15.70
2019-04-27T22:16:39.065Z,16.67
2019-04-27T22:19:11.930Z,16.10
2019-04-27T22:21:43.610Z,16.30
2019-04-27T22:24:15.671Z,16.23
2019-04-27T22:26:46.625Z,17.07
